createdAt,value
2023-10-31T00:00:11.952Z,48
2023-10-31T00:01:13.488Z,48
2023-10-31T00:02:14.975Z,48
2023-10-31T00:03:16.394Z,48
2023-10-31T00:04:17.768Z,48
2023-10-31T00:05:21.350Z,48
2023-10-31T00:06:20.526Z,48
2023-10-31T00:07:21.871Z,48
2023-10-31T00:08:23.203Z,48
2023-10-31T00:09:24.618Z,48
2023-10-31T00:10:25.945Z,48
2023-10-31T00:11:27.343Z,48
2023-10-31T00:12:28.721Z,48
2023-10-31T00:13:30.018Z,48
2023-10-31T00:14:31.776Z,48
2023-10-31T00:15:32.876Z,48
2023-10-31T00:16:34.356Z,48
2023-10-31T00:17:35.852Z,48
2023-10-31T00:18:37.254Z,48
2023-10-31T00:19:38.557Z,48
2023-10-31T00:20:39.901Z,48
2023-10-31T00:21:41.310Z,48
2023-10-31T00:22:42.681Z,48
2023-10-31T00:23:44.433Z,48
2023-10-31T00:24:45.892Z,48
2023-10-31T00:25:47.395Z,48
2023-10-31T00:26:48.929Z,48
2023-10-31T00:27:50.425Z,48
2023-10-31T00:28:51.849Z,48
2023-10-31T00:29:53.325Z,48
2023-10-31T00:30:54.706Z,48
2023-10-31T00:31:56.180Z,48
2023-10-31T00:32:57.642Z,48
2023-10-31T00:33:59.121Z,48
2023-10-31T00:35:00.437Z,48
2023-10-31T00:36:01.693Z,48
2023-10-31T00:37:03.084Z,48
2023-10-31T00:38:04.591Z,48
2023-10-31T00:39:05.870Z,48
2023-10-31T00:40:07.301Z,48
2023-10-31T00:41:08.649Z,48
2023-10-31T00:42:09.895Z,48
2023-10-31T00:43:11.256Z,48
2023-10-31T00:44:12.685Z,48
2023-10-31T00:45:14.087Z,48
2023-10-31T00:46:15.449Z,48
2023-10-31T00:47:16.921Z,48
2023-10-31T00:48:18.232Z,48
2023-10-31T00:49:19.511Z,48
2023-10-31T00:50:21.045Z,48
2023-10-31T00:51:22.302Z,48
2023-10-31T00:52:23.642Z,48
2023-10-31T00:53:25.117Z,48
2023-10-31T00:54:26.733Z,48
2023-10-31T00:55:27.987Z,48
2023-10-31T00:56:29.395Z,48
2023-10-31T00:57:30.683Z,48
2023-10-31T00:58:32.148Z,48
2023-10-31T00:59:33.497Z,48
2023-10-31T01:00:34.854Z,48
2023-10-31T01:01:36.187Z,48
2023-10-31T01:02:37.726Z,48
2023-10-31T01:03:39.059Z,48
2023-10-31T01:04:40.475Z,48
2023-10-31T01:05:41.767Z,48
2023-10-31T01:06:43.078Z,48
2023-10-31T01:07:44.475Z,48
2023-10-31T01:08:45.901Z,48
2023-10-31T01:09:47.308Z,48
2023-10-31T01:10:48.822Z,48
2023-10-31T01:11:50.256Z,48
2023-10-31T01:12:51.716Z,48
2023-10-31T01:13:53.195Z,48
2023-10-31T01:14:54.655Z,48
2023-10-31T01:15:55.984Z,48
2023-10-31T01:16:57.478Z,48
2023-10-31T01:17:58.770Z,48
2023-10-31T01:19:00.206Z,48
2023-10-31T01:20:01.565Z,48
2023-10-31T01:21:03.460Z,48
2023-10-31T01:22:04.987Z,48
2023-10-31T01:23:06.589Z,48
2023-10-31T01:24:07.981Z,48
2023-10-31T01:25:09.306Z,48
2023-10-31T01:26:10.804Z,48
2023-10-31T01:27:12.050Z,48
2023-10-31T01:28:13.323Z,48
2023-10-31T01:29:14.756Z,48
2023-10-31T01:31:39.646Z,48
2023-10-31T01:32:38.607Z,48
2023-10-31T01:33:40.076Z,48
2023-10-31T01:34:41.281Z,48
2023-10-31T01:35:42.700Z,48
2023-10-31T01:36:43.989Z,48
2023-10-31T01:37:45.446Z,48
2023-10-31T01:38:46.919Z,48
2023-10-31T01:39:48.529Z,48
2023-10-31T01:40:50.139Z,48
2023-10-31T01:41:51.649Z,48
2023-10-31T01:42:53.160Z,48
2023-10-31T01:43:54.666Z,48
2023-10-31T01:44:56.017Z,48
2023-10-31T01:45:57.481Z,48
2023-10-31T01:46:58.863Z,48
2023-10-31T01:48:00.384Z,48
2023-10-31T01:49:04.751Z,48
2023-10-31T01:50:06.058Z,48
2023-10-31T01:51:07.492Z,48
2023-10-31T01:52:08.895Z,48
2023-10-31T01:53:10.371Z,48
2023-10-31T01:54:12.259Z,48
2023-10-31T01:55:16.390Z,48
2023-10-31T01:56:17.700Z,48
2023-10-31T01:57:19.093Z,48
2023-10-31T01:58:20.527Z,48
2023-10-31T01:59:21.897Z,48
2023-10-31T02:00:23.289Z,48
2023-10-31T02:01:24.741Z,48
2023-10-31T02:02:26.444Z,48
2023-10-31T02:03:27.795Z,48
2023-10-31T02:04:29.145Z,48
2023-10-31T02:05:30.628Z,48
2023-10-31T02:06:32.120Z,48
2023-10-31T02:07:33.427Z,48
2023-10-31T02:08:34.985Z,48
2023-10-31T02:09:36.461Z,48
2023-10-31T02:10:38.006Z,48
2023-10-31T02:11:39.337Z,48
2023-10-31T02:12:40.862Z,48
2023-10-31T02:13:42.606Z,48
2023-10-31T02:14:43.887Z,48
2023-10-31T02:15:45.383Z,48
2023-10-31T02:16:46.745Z,48
2023-10-31T02:17:48.332Z,48
2023-10-31T02:18:49.590Z,48
2023-10-31T02:19:51.137Z,48
2023-10-31T02:20:52.639Z,48
2023-10-31T02:21:54.032Z,48
2023-10-31T02:22:55.561Z,48
2023-10-31T02:23:56.842Z,48
2023-10-31T02:24:58.123Z,48
2023-10-31T02:25:59.557Z,48
2023-10-31T02:27:00.889Z,48
2023-10-31T02:28:02.363Z,48
2023-10-31T02:29:03.977Z,48
2023-10-31T02:30:07.862Z,48
2023-10-31T02:31:09.256Z,48
2023-10-31T02:32:10.646Z,48
2023-10-31T02:33:11.946Z,48
2023-10-31T02:34:13.159Z,48
2023-10-31T02:35:14.570Z,48
2023-10-31T02:36:16.041Z,48
2023-10-31T02:37:17.445Z,48
2023-10-31T02:38:18.745Z,48
2023-10-31T02:39:20.112Z,48
2023-10-31T02:40:21.362Z,48
2023-10-31T02:41:22.897Z,48
2023-10-31T02:42:24.154Z,48
2023-10-31T02:43:25.516Z,48
2023-10-31T02:44:26.842Z,48
2023-10-31T02:45:28.177Z,48
2023-10-31T02:46:29.604Z,48
2023-10-31T02:47:31.037Z,48
2023-10-31T02:49:56.182Z,48
2023-10-31T02:50:57.438Z,48
2023-10-31T02:51:58.839Z,48
2023-10-31T02:53:00.159Z,48
2023-10-31T02:54:01.533Z,48
2023-10-31T02:55:02.706Z,48
2023-10-31T02:56:04.232Z,48
2023-10-31T02:57:05.545Z,48
2023-10-31T02:58:06.999Z,48
2023-10-31T02:59:08.339Z,48
2023-10-31T03:00:11.724Z,48
2023-10-31T03:01:13.439Z,48
2023-10-31T03:02:14.951Z,48
2023-10-31T03:03:16.233Z,48
2023-10-31T03:04:17.601Z,48
2023-10-31T03:05:18.954Z,48
2023-10-31T03:06:20.286Z,48
2023-10-31T03:07:21.570Z,48
2023-10-31T03:08:22.868Z,48
2023-10-31T03:09:24.122Z,48
2023-10-31T03:10:25.692Z,48
2023-10-31T03:11:27.191Z,48
2023-10-31T03:12:28.552Z,48
2023-10-31T03:13:29.835Z,48
2023-10-31T03:14:31.226Z,48
2023-10-31T03:15:32.508Z,48
2023-10-31T03:16:33.922Z,48
2023-10-31T03:17:35.206Z,48
2023-10-31T03:18:36.539Z,48
2023-10-31T03:19:37.942Z,48
2023-10-31T03:20:39.413Z,48
2023-10-31T03:21:40.730Z,48
2023-10-31T03:22:42.178Z,48
2023-10-31T03:23:43.403Z,48
2023-10-31T03:24:44.748Z,47
2023-10-31T03:25:46.121Z,47
2023-10-31T03:26:47.382Z,47
2023-10-31T03:27:48.711Z,47
2023-10-31T03:28:50.010Z,47
2023-10-31T03:29:51.296Z,47
2023-10-31T03:30:52.826Z,47
2023-10-31T03:31:54.160Z,47
2023-10-31T03:32:55.440Z,47
2023-10-31T03:33:56.715Z,47
2023-10-31T03:34:58.060Z,47
2023-10-31T03:35:59.365Z,47
2023-10-31T03:37:00.682Z,47
2023-10-31T03:38:02.086Z,47
2023-10-31T03:39:03.291Z,47
2023-10-31T03:40:04.591Z,47
2023-10-31T03:41:06.049Z,47
2023-10-31T03:42:07.329Z,47
2023-10-31T03:43:08.633Z,47
2023-10-31T03:44:10.061Z,47
2023-10-31T03:45:11.275Z,47
2023-10-31T03:46:12.544Z,47
2023-10-31T03:47:13.953Z,47
2023-10-31T03:48:15.149Z,47
2023-10-31T03:49:16.409Z,47
2023-10-31T03:50:17.751Z,47
2023-10-31T03:51:19.110Z,47
2023-10-31T03:52:20.424Z,47
2023-10-31T03:53:21.801Z,47
2023-10-31T03:54:23.073Z,47
2023-10-31T03:55:24.504Z,47
2023-10-31T03:56:25.807Z,47
2023-10-31T03:57:27.157Z,47
2023-10-31T03:58:28.726Z,47
2023-10-31T03:59:29.983Z,47
2023-10-31T04:00:31.978Z,47
2023-10-31T04:01:33.276Z,47
2023-10-31T04:02:34.677Z,47
2023-10-31T04:03:36.144Z,47
2023-10-31T04:04:37.406Z,47
2023-10-31T04:05:38.678Z,47
2023-10-31T04:06:40.048Z,47
2023-10-31T04:07:41.415Z,47
2023-10-31T04:08:43.005Z,47
2023-10-31T04:09:44.339Z,47
2023-10-31T04:10:45.766Z,47
2023-10-31T04:11:47.001Z,47
2023-10-31T04:12:48.284Z,47
2023-10-31T04:13:49.667Z,47
2023-10-31T04:14:50.887Z,47
2023-10-31T04:15:52.154Z,47
2023-10-31T04:16:53.524Z,47
2023-10-31T04:17:54.736Z,47
2023-10-31T04:18:56.065Z,47
2023-10-31T04:19:57.406Z,47
2023-10-31T04:20:58.941Z,47
2023-10-31T04:22:00.284Z,47
2023-10-31T04:23:01.624Z,47
2023-10-31T04:24:03.265Z,47
2023-10-31T04:25:04.587Z,47
2023-10-31T04:26:06.120Z,47
2023-10-31T04:27:07.623Z,47
2023-10-31T04:28:09.120Z,47
2023-10-31T04:29:10.487Z,47
2023-10-31T04:30:14.227Z,47
2023-10-31T04:31:13.119Z,47
2023-10-31T04:32:14.503Z,47
2023-10-31T04:33:15.768Z,47
2023-10-31T04:34:17.136Z,47
2023-10-31T04:35:18.475Z,47
2023-10-31T04:36:19.772Z,47
2023-10-31T04:37:21.011Z,47
2023-10-31T04:38:22.291Z,47
2023-10-31T04:39:23.813Z,47
2023-10-31T04:40:25.125Z,47
2023-10-31T04:41:26.409Z,47
2023-10-31T04:42:27.713Z,47
2023-10-31T04:43:29.069Z,47
2023-10-31T04:44:30.342Z,47
2023-10-31T04:45:31.720Z,47
2023-10-31T04:46:33.121Z,47
2023-10-31T04:47:34.456Z,47
2023-10-31T04:48:35.830Z,47
2023-10-31T04:49:37.233Z,47
2023-10-31T04:50:38.669Z,47
2023-10-31T04:51:39.945Z,47
2023-10-31T04:52:41.305Z,47
2023-10-31T04:53:42.549Z,47
2023-10-31T04:54:43.898Z,47
2023-10-31T04:55:45.277Z,47
2023-10-31T04:56:46.529Z,47
2023-10-31T04:57:47.827Z,47
2023-10-31T04:58:49.224Z,47
2023-10-31T04:59:50.500Z,47
2023-10-31T05:00:51.797Z,47
2023-10-31T05:01:53.064Z,47
2023-10-31T05:02:54.428Z,47
2023-10-31T05:03:59.212Z,47
2023-10-31T05:04:57.504Z,47
2023-10-31T05:05:58.754Z,47
2023-10-31T05:07:00.046Z,47
2023-10-31T05:08:01.428Z,47
2023-10-31T05:09:02.657Z,47
2023-10-31T05:10:04.174Z,47
2023-10-31T05:11:05.732Z,47
2023-10-31T05:12:06.889Z,47
2023-10-31T05:13:08.256Z,47
2023-10-31T05:14:09.779Z,47
2023-10-31T05:15:11.225Z,47
2023-10-31T05:16:12.519Z,47
2023-10-31T05:17:13.824Z,47
2023-10-31T05:18:15.116Z,47
2023-10-31T05:19:16.443Z,47
2023-10-31T05:20:18.014Z,47
2023-10-31T05:21:19.264Z,47
2023-10-31T05:22:21.694Z,47
2023-10-31T05:23:22.044Z,47
2023-10-31T05:24:23.316Z,47
2023-10-31T05:25:24.610Z,47
2023-10-31T05:26:25.889Z,47
2023-10-31T05:27:27.231Z,47
2023-10-31T05:28:28.515Z,47
2023-10-31T05:29:29.805Z,47
2023-10-31T05:30:31.186Z,47
2023-10-31T05:31:32.650Z,47
2023-10-31T05:32:34.166Z,47
2023-10-31T05:33:35.524Z,47
2023-10-31T05:34:36.837Z,47
2023-10-31T05:35:38.241Z,47
2023-10-31T05:36:39.501Z,47
2023-10-31T05:37:40.833Z,47
2023-10-31T05:38:42.128Z,47
2023-10-31T05:40:14.417Z,47
2023-10-31T05:41:15.735Z,46
2023-10-31T05:42:17.256Z,46
2023-10-31T05:43:18.628Z,46
2023-10-31T05:44:20.374Z,46
2023-10-31T05:45:21.836Z,46
2023-10-31T05:46:23.253Z,46
2023-10-31T05:47:24.644Z,46
2023-10-31T05:48:26.287Z,46
2023-10-31T05:49:27.633Z,46
2023-10-31T05:50:29.023Z,46
2023-10-31T05:51:30.708Z,46
2023-10-31T05:52:32.489Z,46
2023-10-31T05:53:33.987Z,46
2023-10-31T05:54:35.589Z,46
2023-10-31T05:55:40.218Z,46
2023-10-31T05:56:41.796Z,46
2023-10-31T05:57:45.850Z,46
2023-10-31T05:58:47.421Z,46
2023-10-31T05:59:48.773Z,46
2023-10-31T06:00:50.734Z,47
2023-10-31T06:01:52.526Z,47
2023-10-31T06:02:53.990Z,47
2023-10-31T06:03:55.347Z,46
2023-10-31T06:04:56.912Z,46
2023-10-31T06:05:58.407Z,45
2023-10-31T06:06:59.958Z,45
2023-10-31T06:08:01.420Z,45
2023-10-31T06:09:03.250Z,45
2023-10-31T06:10:04.827Z,45
2023-10-31T06:11:06.200Z,45
2023-10-31T06:12:07.642Z,45
2023-10-31T06:13:08.972Z,45
2023-10-31T06:14:10.401Z,45
2023-10-31T06:15:14.957Z,45
2023-10-31T06:16:16.410Z,44
2023-10-31T06:18:38.981Z,44
2023-10-31T06:19:40.676Z,44
2023-10-31T06:20:41.970Z,44
2023-10-31T06:21:43.370Z,44
2023-10-31T06:22:44.889Z,44
2023-10-31T06:23:49.150Z,44
2023-10-31T06:24:53.896Z,44
2023-10-31T06:27:05.950Z,44
2023-10-31T06:28:07.407Z,44
2023-10-31T06:29:18.420Z,44
2023-10-31T06:30:16.779Z,44
2023-10-31T06:31:12.282Z,44
2023-10-31T06:32:13.639Z,44
2023-10-31T06:33:15.037Z,44
2023-10-31T06:34:16.561Z,44
2023-10-31T06:35:20.899Z,44
2023-10-31T06:36:22.183Z,44
2023-10-31T06:37:23.793Z,44
2023-10-31T06:38:25.358Z,44
2023-10-31T06:39:26.793Z,44
2023-10-31T06:40:28.345Z,44
2023-10-31T06:41:30.115Z,45
2023-10-31T06:42:31.585Z,44
2023-10-31T06:43:35.063Z,44
2023-10-31T06:44:34.530Z,44
2023-10-31T06:45:35.956Z,45
2023-10-31T06:46:37.396Z,44
2023-10-31T06:47:39.024Z,44
2023-10-31T06:48:40.795Z,44
2023-10-31T06:49:42.781Z,44
2023-10-31T06:50:44.222Z,44
2023-10-31T06:51:45.705Z,44
2023-10-31T06:52:47.305Z,44
2023-10-31T06:53:48.751Z,44
2023-10-31T06:54:50.289Z,44
2023-10-31T06:55:52.623Z,44
2023-10-31T06:56:53.206Z,44
2023-10-31T06:57:54.794Z,44
2023-10-31T06:58:56.163Z,44
2023-10-31T06:59:58.561Z,44
2023-10-31T07:00:59.920Z,44
2023-10-31T07:02:01.396Z,44
2023-10-31T07:03:02.962Z,44
2023-10-31T07:04:04.353Z,44
2023-10-31T07:05:06.052Z,44
2023-10-31T07:06:07.397Z,44
2023-10-31T07:07:09.242Z,44
2023-10-31T07:08:10.716Z,44
2023-10-31T07:10:32.996Z,44
2023-10-31T07:11:35.071Z,44
2023-10-31T07:12:37.596Z,44
2023-10-31T07:13:39.097Z,44
2023-10-31T07:14:40.720Z,44
2023-10-31T07:15:42.623Z,44
2023-10-31T07:16:44.142Z,44
2023-10-31T07:17:46.047Z,44
2023-10-31T07:18:48.447Z,44
2023-10-31T07:19:49.973Z,44
2023-10-31T07:20:51.687Z,44
2023-10-31T07:21:54.349Z,44
2023-10-31T07:22:58.743Z,44
2023-10-31T07:24:00.599Z,44
2023-10-31T07:25:05.010Z,44
2023-10-31T07:26:07.162Z,44
2023-10-31T07:27:08.667Z,44
2023-10-31T07:28:10.022Z,44
2023-10-31T07:29:11.991Z,44
2023-10-31T07:30:13.779Z,44
2023-10-31T07:31:15.340Z,44
2023-10-31T07:33:19.102Z,45
2023-10-31T07:34:21.070Z,45
2023-10-31T07:35:22.614Z,46
2023-10-31T07:36:24.228Z,45
2023-10-31T07:37:25.559Z,45
2023-10-31T07:38:27.235Z,45
2023-10-31T07:39:29.074Z,44
2023-10-31T07:40:32.233Z,46
2023-10-31T07:41:33.760Z,45
2023-10-31T07:42:35.641Z,44
2023-10-31T07:43:38.926Z,44
2023-10-31T07:44:38.917Z,44
2023-10-31T07:45:40.416Z,44
2023-10-31T07:46:41.779Z,44
2023-10-31T07:47:43.231Z,44
2023-10-31T07:48:44.534Z,44
2023-10-31T07:49:46.085Z,44
2023-10-31T07:50:47.358Z,44
2023-10-31T07:51:51.532Z,44
2023-10-31T07:52:52.863Z,44
2023-10-31T07:53:54.175Z,44
2023-10-31T07:54:55.720Z,44
2023-10-31T07:55:57.071Z,44
2023-10-31T07:56:58.727Z,44
2023-10-31T07:58:00.205Z,44
2023-10-31T07:59:01.787Z,44
2023-10-31T08:00:12.612Z,44
2023-10-31T08:01:14.149Z,44
2023-10-31T08:02:15.659Z,44
2023-10-31T08:03:17.262Z,44
2023-10-31T08:04:18.705Z,44
2023-10-31T08:05:20.152Z,44
2023-10-31T08:06:21.627Z,44
2023-10-31T08:07:23.027Z,43
2023-10-31T08:08:24.392Z,43
2023-10-31T08:09:25.914Z,43
2023-10-31T08:10:30.119Z,44
2023-10-31T08:11:31.576Z,44
2023-10-31T08:12:32.916Z,44
2023-10-31T08:13:34.220Z,44
2023-10-31T08:14:38.515Z,44
2023-10-31T08:15:40.004Z,44
2023-10-31T08:16:41.390Z,43
2023-10-31T08:17:42.895Z,44
2023-10-31T08:18:46.908Z,43
2023-10-31T08:19:48.232Z,43
2023-10-31T08:20:49.626Z,43
2023-10-31T08:21:51.020Z,43
2023-10-31T08:22:52.352Z,43
2023-10-31T08:23:53.846Z,43
2023-10-31T08:24:55.213Z,43
2023-10-31T08:25:59.549Z,43
2023-10-31T08:27:01.024Z,43
2023-10-31T08:28:02.611Z,43
2023-10-31T08:29:06.664Z,43
2023-10-31T08:30:10.991Z,43
2023-10-31T08:31:12.632Z,43
2023-10-31T08:32:14.382Z,43
2023-10-31T08:33:15.909Z,44
2023-10-31T08:34:17.451Z,43
2023-10-31T08:35:18.943Z,43
2023-10-31T08:36:20.147Z,43
2023-10-31T08:38:47.138Z,43
2023-10-31T08:39:48.622Z,43
2023-10-31T08:40:50.023Z,43
2023-10-31T08:43:11.821Z,43
2023-10-31T08:44:13.527Z,43
2023-10-31T08:45:15.179Z,43
2023-10-31T08:46:17.072Z,43
2023-10-31T08:47:18.534Z,43
2023-10-31T08:48:25.536Z,44
2023-10-31T08:49:27.156Z,43
2023-10-31T08:50:28.756Z,43
2023-10-31T08:51:30.258Z,43
2023-10-31T08:52:31.850Z,43
2023-10-31T08:53:33.247Z,43
2023-10-31T08:54:35.321Z,43
2023-10-31T08:55:36.904Z,43
2023-10-31T08:56:38.310Z,43
2023-10-31T08:57:40.074Z,43
2023-10-31T08:58:41.350Z,43
2023-10-31T08:59:42.885Z,43
2023-10-31T09:00:44.832Z,43
2023-10-31T09:01:46.127Z,43
2023-10-31T09:02:47.562Z,43
2023-10-31T09:03:49.044Z,43
2023-10-31T09:04:50.353Z,43
2023-10-31T09:05:51.775Z,43
2023-10-31T09:06:53.147Z,43
2023-10-31T09:07:56.301Z,43
2023-10-31T09:08:56.031Z,43
2023-10-31T09:09:58.104Z,43
2023-10-31T09:10:59.918Z,43
2023-10-31T09:12:01.348Z,43
2023-10-31T09:13:02.844Z,43
2023-10-31T09:14:04.477Z,43
2023-10-31T09:15:05.843Z,43
2023-10-31T09:16:07.356Z,43
2023-10-31T09:17:08.940Z,43
2023-10-31T09:18:10.378Z,42
2023-10-31T09:19:11.709Z,42
2023-10-31T09:20:13.063Z,42
2023-10-31T09:21:14.793Z,42
2023-10-31T09:22:16.206Z,42
2023-10-31T09:23:17.556Z,44
2023-10-31T09:24:18.825Z,44
2023-10-31T09:25:20.284Z,44
2023-10-31T09:26:21.658Z,44
2023-10-31T09:27:23.056Z,43
2023-10-31T09:28:24.346Z,43
2023-10-31T09:29:28.493Z,43
2023-10-31T09:30:27.283Z,43
2023-10-31T09:31:28.794Z,43
2023-10-31T09:32:30.436Z,43
2023-10-31T09:33:31.883Z,42
2023-10-31T09:34:33.277Z,42
2023-10-31T09:35:34.857Z,42
2023-10-31T09:37:59.886Z,42
2023-10-31T09:39:01.386Z,42
2023-10-31T09:40:02.958Z,42
2023-10-31T09:41:04.800Z,42
2023-10-31T09:42:06.651Z,42
2023-10-31T09:43:08.534Z,42
2023-10-31T09:44:10.257Z,43
2023-10-31T09:45:12.054Z,42
2023-10-31T09:46:13.622Z,42
2023-10-31T09:47:15.348Z,42
2023-10-31T09:48:17.037Z,42
2023-10-31T09:49:18.408Z,42
2023-10-31T09:50:20.559Z,42
2023-10-31T09:51:22.179Z,42
2023-10-31T09:52:23.836Z,42
2023-10-31T09:53:25.540Z,42
2023-10-31T09:54:27.217Z,42
2023-10-31T09:55:28.558Z,42
2023-10-31T09:56:29.958Z,42
2023-10-31T09:57:31.828Z,43
2023-10-31T09:58:33.634Z,43
2023-10-31T09:59:35.025Z,43
2023-10-31T10:00:36.676Z,42
2023-10-31T10:01:38.511Z,42
2023-10-31T10:02:39.841Z,42
2023-10-31T10:03:41.342Z,42
2023-10-31T10:04:43.021Z,42
2023-10-31T10:05:44.564Z,42
2023-10-31T10:06:45.934Z,42
2023-10-31T10:07:47.382Z,42
2023-10-31T10:08:48.850Z,42
2023-10-31T10:09:50.512Z,42
2023-10-31T10:10:52.412Z,44
2023-10-31T10:11:55.316Z,43
2023-10-31T10:12:55.447Z,43
2023-10-31T10:13:56.736Z,43
2023-10-31T10:14:58.093Z,43
2023-10-31T10:15:59.500Z,43
2023-10-31T10:17:01.377Z,43
2023-10-31T10:18:02.680Z,43
2023-10-31T10:19:04.089Z,43
2023-10-31T10:20:05.629Z,44
2023-10-31T10:21:07.034Z,44
2023-10-31T10:22:08.499Z,44
2023-10-31T10:23:09.923Z,43
2023-10-31T10:24:11.587Z,43
2023-10-31T10:25:12.671Z,43
2023-10-31T10:26:14.314Z,43
2023-10-31T10:27:15.789Z,43
2023-10-31T10:28:17.546Z,43
2023-10-31T10:29:18.577Z,43
2023-10-31T10:30:19.889Z,43
2023-10-31T10:31:21.715Z,44
2023-10-31T10:32:23.345Z,43
2023-10-31T10:33:24.517Z,43
2023-10-31T10:34:25.911Z,43
2023-10-31T10:35:27.258Z,43
2023-10-31T10:36:28.552Z,43
2023-10-31T10:37:30.028Z,43
2023-10-31T10:38:31.588Z,43
2023-10-31T10:39:33.335Z,43
2023-10-31T10:40:34.468Z,43
2023-10-31T10:41:36.106Z,43
2023-10-31T10:42:37.671Z,43
2023-10-31T10:43:39.354Z,43
2023-10-31T10:44:40.766Z,43
2023-10-31T10:45:42.411Z,43
2023-10-31T10:46:43.681Z,43
2023-10-31T10:47:45.180Z,43
2023-10-31T10:48:46.616Z,43
2023-10-31T10:49:48.330Z,43
2023-10-31T10:50:50.292Z,43
2023-10-31T10:51:51.685Z,43
2023-10-31T10:52:53.198Z,43
2023-10-31T10:53:54.535Z,42
2023-10-31T10:54:55.972Z,43
2023-10-31T10:55:57.427Z,43
2023-10-31T10:56:58.948Z,43
2023-10-31T10:58:00.362Z,43
2023-10-31T10:59:02.077Z,42
2023-10-31T11:00:04.244Z,42
2023-10-31T11:01:05.794Z,42
2023-10-31T11:02:07.730Z,42
2023-10-31T11:03:09.099Z,42
2023-10-31T11:04:10.435Z,43
2023-10-31T11:05:11.883Z,42
2023-10-31T11:06:13.329Z,42
2023-10-31T11:07:15.086Z,42
2023-10-31T11:08:16.802Z,42
2023-10-31T11:10:20.049Z,43
2023-10-31T11:11:21.860Z,42
2023-10-31T11:12:23.509Z,42
2023-10-31T11:13:24.969Z,42
2023-10-31T11:14:26.465Z,42
2023-10-31T11:15:28.065Z,42
2023-10-31T11:16:29.462Z,42
2023-10-31T11:17:31.224Z,42
2023-10-31T11:18:35.372Z,42
2023-10-31T11:19:36.848Z,42
2023-10-31T11:20:38.464Z,43
2023-10-31T11:21:39.936Z,43
2023-10-31T11:22:41.916Z,43
2023-10-31T11:23:46.409Z,43
2023-10-31T11:24:47.972Z,43
2023-10-31T11:25:49.472Z,42
2023-10-31T11:26:50.881Z,42
2023-10-31T11:27:52.302Z,42
2023-10-31T11:28:54.161Z,43
2023-10-31T11:30:35.793Z,43
2023-10-31T11:31:37.115Z,42
2023-10-31T11:32:38.691Z,42
2023-10-31T11:33:40.313Z,42
2023-10-31T11:35:33.044Z,42
2023-10-31T11:36:34.580Z,42
2023-10-31T11:37:37.102Z,42
2023-10-31T11:38:38.530Z,42
2023-10-31T11:39:40.228Z,42
2023-10-31T11:40:41.868Z,42
2023-10-31T11:41:46.270Z,42
2023-10-31T11:42:47.764Z,42
2023-10-31T11:43:49.439Z,42
2023-10-31T11:44:50.907Z,42
2023-10-31T11:45:52.421Z,42
2023-10-31T11:46:53.817Z,42
2023-10-31T11:47:55.235Z,42
2023-10-31T11:48:56.639Z,42
2023-10-31T11:49:57.977Z,42
2023-10-31T11:50:59.810Z,42
2023-10-31T11:52:01.027Z,42
2023-10-31T11:54:20.165Z,42
2023-10-31T11:55:22.014Z,42
2023-10-31T11:56:26.335Z,42
2023-10-31T11:57:27.875Z,42
2023-10-31T11:58:29.712Z,42
2023-10-31T12:00:29.362Z,42
2023-10-31T12:01:30.823Z,42
2023-10-31T12:02:32.447Z,42
2023-10-31T12:10:13.059Z,42
2023-10-31T12:11:14.855Z,42
2023-10-31T12:48:54.999Z,30
2023-10-31T12:49:56.897Z,42
2023-10-31T12:51:01.618Z,42
2023-10-31T12:52:03.718Z,41
2023-10-31T12:53:05.493Z,42
2023-10-31T12:54:07.614Z,42
2023-10-31T12:55:09.831Z,42
2023-10-31T12:56:11.619Z,42
2023-10-31T12:57:16.287Z,42
2023-10-31T12:58:18.990Z,42
2023-10-31T12:59:20.893Z,42
2023-10-31T13:00:22.537Z,42
2023-10-31T13:01:24.417Z,42
2023-10-31T13:02:26.202Z,42
2023-10-31T13:03:27.881Z,42
2023-10-31T13:04:29.874Z,42
2023-10-31T13:05:31.084Z,42
2023-10-31T13:06:32.666Z,42
2023-10-31T13:07:34.331Z,42
2023-10-31T13:08:36.180Z,42
2023-10-31T13:09:37.797Z,42
2023-10-31T13:10:39.477Z,42
2023-10-31T13:11:41.042Z,42
2023-10-31T13:12:42.687Z,42
2023-10-31T13:13:44.438Z,42
2023-10-31T13:14:49.146Z,42
2023-10-31T13:15:51.249Z,42
2023-10-31T13:16:52.663Z,42
2023-10-31T13:17:57.156Z,42
2023-10-31T13:18:58.887Z,42
2023-10-31T13:20:00.488Z,42
2023-10-31T13:21:02.635Z,42
2023-10-31T13:22:07.621Z,42
2023-10-31T13:23:09.630Z,42
2023-10-31T13:24:11.661Z,42
2023-10-31T13:25:13.953Z,42
2023-10-31T13:26:15.968Z,42
2023-10-31T13:27:17.895Z,42
2023-10-31T13:28:19.632Z,42
2023-10-31T13:29:21.315Z,42
2023-10-31T13:30:22.764Z,42
2023-10-31T13:31:24.298Z,42
2023-10-31T13:32:25.843Z,42
2023-10-31T13:33:27.296Z,42
2023-10-31T13:34:29.407Z,42
2023-10-31T13:35:30.961Z,42
2023-10-31T13:36:32.693Z,42
2023-10-31T13:37:34.306Z,42
2023-10-31T13:38:36.068Z,42
2023-10-31T13:39:37.471Z,42
2023-10-31T13:40:39.085Z,42
2023-10-31T13:41:40.888Z,42
2023-10-31T13:42:42.559Z,42
2023-10-31T13:43:44.015Z,42
2023-10-31T13:44:45.607Z,42
2023-10-31T13:45:47.141Z,42
2023-10-31T13:46:49.183Z,42
2023-10-31T13:47:50.840Z,42
2023-10-31T13:48:52.212Z,42
2023-10-31T13:49:53.778Z,42
2023-10-31T13:50:55.276Z,42
2023-10-31T13:51:56.765Z,42
2023-10-31T13:52:58.320Z,43
2023-10-31T13:54:00.286Z,42
2023-10-31T13:55:01.925Z,42
2023-10-31T13:56:03.718Z,42
2023-10-31T13:57:05.593Z,42
2023-10-31T13:58:07.053Z,42
2023-10-31T13:59:08.533Z,43
2023-10-31T14:00:11.219Z,42
2023-10-31T14:01:12.613Z,43
2023-10-31T14:02:14.315Z,42
2023-10-31T14:03:16.117Z,42
2023-10-31T14:04:17.552Z,42
2023-10-31T14:05:18.947Z,42
2023-10-31T14:06:20.102Z,42
2023-10-31T14:07:21.392Z,42
2023-10-31T14:08:22.939Z,42
2023-10-31T14:09:24.402Z,42
2023-10-31T14:10:25.892Z,42
2023-10-31T14:11:27.477Z,42
2023-10-31T14:12:28.774Z,42
2023-10-31T14:13:30.354Z,42
2023-10-31T14:14:31.738Z,42
2023-10-31T14:15:33.161Z,42
2023-10-31T14:16:34.683Z,42
2023-10-31T14:17:36.061Z,42
2023-10-31T14:18:37.292Z,42
2023-10-31T14:19:38.723Z,42
2023-10-31T14:20:40.325Z,42
2023-10-31T14:21:41.835Z,42
2023-10-31T14:22:43.362Z,42
2023-10-31T14:23:44.939Z,42
2023-10-31T14:24:46.344Z,42
2023-10-31T14:25:47.683Z,43
2023-10-31T14:26:49.056Z,43
2023-10-31T14:27:50.476Z,43
2023-10-31T14:28:51.912Z,43
2023-10-31T14:29:53.255Z,43
2023-10-31T14:30:54.963Z,43
2023-10-31T14:31:56.357Z,43
2023-10-31T14:32:57.996Z,43
2023-10-31T14:34:05.350Z,43
2023-10-31T14:35:08.695Z,43
2023-10-31T14:36:10.246Z,43
2023-10-31T14:37:12.538Z,43
2023-10-31T14:38:13.155Z,43
2023-10-31T14:39:14.519Z,43
2023-10-31T14:40:16.051Z,43
2023-10-31T14:41:17.653Z,43
2023-10-31T14:42:18.990Z,43
2023-10-31T14:43:20.614Z,43
2023-10-31T14:44:22.197Z,43
2023-10-31T14:45:23.590Z,43
2023-10-31T14:46:25.148Z,43
2023-10-31T14:47:26.602Z,43
2023-10-31T14:48:28.291Z,43
2023-10-31T14:49:32.677Z,43
2023-10-31T14:50:34.370Z,43
2023-10-31T14:51:36.268Z,43
2023-10-31T14:52:37.931Z,43
2023-10-31T14:53:39.770Z,43
2023-10-31T14:54:41.381Z,43
2023-10-31T14:55:43.533Z,43
2023-10-31T14:56:45.148Z,43
2023-10-31T14:57:46.705Z,43
2023-10-31T14:58:48.350Z,43
2023-10-31T14:59:49.969Z,43
2023-10-31T15:00:51.690Z,43
2023-10-31T15:01:53.489Z,43
2023-10-31T15:02:55.177Z,43
2023-10-31T15:03:56.692Z,43
2023-10-31T15:04:58.144Z,43
2023-10-31T15:05:59.568Z,43
2023-10-31T15:07:01.002Z,43
2023-10-31T15:08:02.841Z,43
2023-10-31T15:09:04.393Z,43
2023-10-31T15:10:06.158Z,43
2023-10-31T15:11:07.966Z,43
2023-10-31T15:12:09.814Z,43
2023-10-31T15:13:11.543Z,43
2023-10-31T15:14:13.292Z,43
2023-10-31T15:15:14.880Z,43
2023-10-31T15:16:16.599Z,43
2023-10-31T15:17:18.194Z,43
2023-10-31T15:18:19.956Z,44
2023-10-31T15:19:21.619Z,44
2023-10-31T15:20:23.557Z,44
2023-10-31T15:21:25.117Z,44
2023-10-31T15:22:26.997Z,44
2023-10-31T15:23:28.859Z,44
2023-10-31T15:24:30.362Z,44
2023-10-31T15:25:32.050Z,44
2023-10-31T15:26:33.886Z,44
2023-10-31T15:27:35.291Z,44
2023-10-31T15:28:37.193Z,44
2023-10-31T15:29:39.084Z,45
2023-10-31T15:30:40.382Z,45
2023-10-31T15:31:42.193Z,46
2023-10-31T15:32:43.840Z,46
2023-10-31T15:33:45.602Z,46
2023-10-31T15:34:47.176Z,46
2023-10-31T15:35:49.662Z,46
2023-10-31T15:36:50.117Z,46
2023-10-31T15:37:51.957Z,46
2023-10-31T15:39:09.407Z,46